Time;durP1;ratioP1;P1;durP2;ratioP2;P2;SDS_P1;SDS_P2;PMS_P1;PMS_P2;Temp;Humidity;BMP_temperature;BMP_pressure;BME280_temperature;BME280_humidity;BME280_pressure;Samples;Min_cycle;Max_cycle;Signal;HPM_P1;HPM_P2
2022/08/21 00:01:52;;;;;;;0.00;0.00;;;18.70;99.90;226.50;231333.00;;;;5065711;28;20205;-75
2022/08/21 00:04:21;;;;;;;0.00;0.00;;;18.60;99.90;226.50;231333.00;;;;5059610;28;20225;-76
2022/08/21 00:06:56;;;;;;;0.00;0.00;;;18.70;99.90;226.50;231333.00;;;;5065592;28;20296;-76
2022/08/21 00:09:25;;;;;;;0.00;0.00;;;18.70;99.90;226.50;231333.00;;;;5055932;28;20218;-75
2022/08/21 00:11:53;;;;;;;0.00;0.00;;;18.80;99.90;226.50;231333.00;;;;5069397;28;20193;-72
2022/08/21 00:14:21;;;;;;;0.00;0.00;;;18.80;99.90;226.50;231333.00;;;;5053861;28;20228;-74
2022/08/21 00:16:50;;;;;;;0.00;0.00;;;18.80;99.90;226.50;231333.00;;;;5070768;28;20586;-77
2022/08/21 00:19:18;;;;;;;0.00;0.00;;;18.80;99.90;226.50;231333.00;;;;5069577;28;20554;-76
2022/08/21 00:21:48;;;;;;;0.00;0.00;;;18.80;99.90;226.50;231333.00;;;;5054192;28;20194;-77
2022/08/21 00:24:16;;;;;;;0.00;0.00;;;18.80;99.90;226.50;231333.00;;;;5064437;28;20233;-77
2022/08/21 00:26:46;;;;;;;0.00;0.00;;;18.70;99.90;226.50;231333.00;;;;5051512;28;20198;-77
2022/08/21 00:29:15;;;;;;;0.00;0.00;;;18.70;99.90;226.50;231333.00;;;;5051064;28;20194;-77
2022/08/21 00:31:44;;;;;;;0.00;0.00;;;18.70;99.90;226.50;231333.00;;;;5071395;28;20665;-76
2022/08/21 00:34:13;;;;;;;0.00;0.00;;;18.70;99.90;226.50;231333.00;;;;5066997;28;20210;-75
2022/08/21 00:36:41;;;;;;;0.00;0.00;;;18.60;99.90;226.50;231333.00;;;;5063631;28;20239;-76
2022/08/21 00:39:10;;;;;;;0.00;0.00;;;18.60;99.90;226.50;231333.00;;;;5062201;28;20191;-76
2022/08/21 00:41:40;;;;;;;0.00;0.00;;;18.60;99.90;226.50;231333.00;;;;5070776;28;20608;-74
2022/08/21 00:44:15;;;;;;;0.00;0.00;;;18.60;99.90;226.50;231333.00;;;;5069039;28;20190;-76
2022/08/21 00:46:44;;;;;;;0.00;0.00;;;18.50;99.90;226.50;231333.00;;;;5063623;28;20192;-76
2022/08/21 00:49:13;;;;;;;0.00;0.00;;;18.50;99.90;226.50;231333.00;;;;5069812;28;20560;-76
2022/08/21 00:51:48;;;;;;;0.00;0.00;;;18.50;99.90;226.50;231333.00;;;;5053263;28;20204;-75
2022/08/21 00:54:19;;;;;;;0.00;0.00;;;18.60;99.90;226.50;231333.00;;;;5053943;28;20230;-75
2022/08/21 00:56:54;;;;;;;0.00;0.00;;;18.70;99.90;226.50;231333.00;;;;5074116;28;20292;-76
2022/08/21 00:59:33;;;;;;;0.00;0.00;;;18.60;99.90;226.50;231333.00;;;;5073478;28;20197;-76
2022/08/21 01:02:01;;;;;;;0.00;0.00;;;18.60;99.90;226.50;231333.00;;;;5054851;28;20190;-76
2022/08/21 01:04:29;;;;;;;0.00;0.00;;;18.50;99.90;226.50;231333.00;;;;5056357;28;20220;-76
2022/08/21 01:06:57;;;;;;;0.00;0.00;;;18.50;99.90;226.50;231333.00;;;;5073466;28;20198;-76
2022/08/21 01:09:26;;;;;;;0.00;0.00;;;18.60;99.90;226.50;231333.00;;;;5070538;28;20193;-76
2022/08/21 01:11:54;;;;;;;0.00;0.00;;;18.60;99.90;226.50;231333.00;;;;5036741;28;20194;-77
2022/08/21 01:14:22;;;;;;;0.00;0.00;;;18.60;99.90;226.50;231333.00;;;;5058136;28;20217;-76
2022/08/21 01:16:54;;;;;;;0.00;0.00;;;18.50;99.90;226.50;231333.00;;;;5074427;28;20194;-76
2022/08/21 01:19:24;;;;;;;0.00;0.00;;;18.50;99.90;226.50;231333.00;;;;5073826;28;20280;-77
2022/08/21 01:21:54;;;;;;;0.00;0.00;;;18.60;99.90;226.50;231333.00;;;;5074510;28;20193;-76
2022/08/21 01:24:23;;;;;;;0.00;0.00;;;18.60;99.90;226.50;231333.00;;;;5073032;28;20225;-75
2022/08/21 01:26:52;;;;;;;0.00;0.00;;;18.60;99.90;226.50;231333.00;;;;5072874;28;20204;-76
2022/08/21 01:29:32;;;;;;;0.00;0.00;;;18.60;99.90;226.50;231333.00;;;;5055823;28;20206;-76
2022/08/21 01:32:08;;;;;;;0.00;0.00;;;18.60;99.90;226.50;231333.00;;;;5068100;28;20190;-76
2022/08/21 01:34:41;;;;;;;0.00;0.00;;;18.60;99.90;226.50;231333.00;;;;5068220;28;20233;-76
2022/08/21 01:37:12;;;;;;;0.00;0.00;;;18.60;99.90;226.50;231333.00;;;;5063131;28;20225;-76
2022/08/21 01:39:43;;;;;;;0.00;0.00;;;18.60;99.90;226.50;231333.00;;;;5058101;28;20198;-76
2022/08/21 01:42:11;;;;;;;0.00;0.00;;;18.50;99.90;226.50;231333.00;;;;5073486;28;20202;-76
2022/08/21 01:44:40;;;;;;;0.00;0.00;;;18.40;99.90;226.50;231333.00;;;;5067365;28;20214;-76
2022/08/21 01:47:11;;;;;;;0.00;0.00;;;18.30;99.90;226.50;231333.00;;;;5073610;28;20190;-74
2022/08/21 01:49:41;;;;;;;0.00;0.00;;;18.30;99.90;226.50;231333.00;;;;5073879;28;20198;-75
2022/08/21 01:52:11;;;;;;;0.00;0.00;;;18.20;99.90;226.50;231333.00;;;;5067600;28;20197;-75
2022/08/21 01:54:40;;;;;;;0.00;0.00;;;18.30;99.90;226.50;231333.00;;;;5069155;28;20232;-72
2022/08/21 01:57:10;;;;;;;0.00;0.00;;;18.30;99.90;226.50;231333.00;;;;5073420;28;20746;-72
2022/08/21 01:59:38;;;;;;;0.00;0.00;;;18.30;99.90;226.50;231333.00;;;;5070307;28;20688;-73
2022/08/21 02:02:07;;;;;;;0.00;0.00;;;18.30;99.90;226.50;231333.00;;;;5069398;28;20198;-74
2022/08/21 02:04:35;;;;;;;0.00;0.00;;;18.30;99.90;226.50;231333.00;;;;5067801;28;20221;-73
2022/08/21 02:07:04;;;;;;;0.00;0.00;;;18.30;99.90;226.50;231333.00;;;;5073658;28;20197;-75
2022/08/21 02:09:36;;;;;;;0.00;0.00;;;18.30;99.90;226.50;231333.00;;;;5074850;28;20226;-73
2022/08/21 02:12:07;;;;;;;0.00;0.00;;;18.30;99.90;226.50;231333.00;;;;5074124;28;20815;-75
2022/08/21 02:14:35;;;;;;;0.00;0.00;;;18.30;99.90;226.50;231333.00;;;;5056789;28;20224;-73
2022/08/21 02:17:05;;;;;;;0.00;0.00;;;18.40;99.90;226.50;231333.00;;;;5060043;28;20198;-73
2022/08/21 02:19:38;;;;;;;0.00;0.00;;;18.40;99.90;226.50;231333.00;;;;5056224;28;20217;-73
2022/08/21 02:22:08;;;;;;;0.00;0.00;;;18.40;99.90;226.50;231333.00;;;;5072996;28;20200;-74
2022/08/21 02:24:39;;;;;;;0.00;0.00;;;18.40;99.90;226.50;231333.00;;;;5067707;28;20241;-73
2022/08/21 02:27:23;;;;;;;0.00;0.00;;;18.50;99.90;226.50;231333.00;;;;5073730;28;20198;-75
2022/08/21 02:29:55;;;;;;;0.00;0.00;;;18.40;99.90;226.50;231333.00;;;;5054813;28;20202;-73
2022/08/21 02:32:23;;;;;;;0.00;0.00;;;18.40;99.90;226.50;231333.00;;;;5055785;28;20206;-72
2022/08/21 02:34:52;;;;;;;0.00;0.00;;;18.40;99.90;226.50;231333.00;;;;5065976;28;20236;-74
2022/08/21 02:37:20;;;;;;;0.00;0.00;;;18.30;99.90;226.50;231333.00;;;;5075672;28;20704;-72
2022/08/21 02:39:50;;;;;;;0.00;0.00;;;18.30;99.90;226.50;231333.00;;;;5073233;28;20225;-73
2022/08/21 02:42:18;;;;;;;0.00;0.00;;;18.50;99.90;226.50;231333.00;;;;5073141;28;20194;-73
2022/08/21 02:44:46;;;;;;;0.00;0.00;;;18.60;99.90;226.50;231333.00;;;;5068824;28;20210;-74
2022/08/21 02:47:15;;;;;;;0.00;0.00;;;18.50;99.90;226.50;231333.00;;;;5066415;28;20185;-72
2022/08/21 02:49:43;;;;;;;0.00;0.00;;;18.40;99.90;226.50;231333.00;;;;5072963;28;20276;-73
2022/08/21 02:52:11;;;;;;;0.00;0.00;;;18.40;99.90;226.50;231333.00;;;;5072249;28;20680;-73
2022/08/21 02:54:39;;;;;;;0.00;0.00;;;18.50;99.90;226.50;231333.00;;;;5069269;28;20317;-72
2022/08/21 02:57:09;;;;;;;0.00;0.00;;;18.50;99.90;226.50;231333.00;;;;5067957;28;20200;-73
2022/08/21 02:59:37;;;;;;;0.00;0.00;;;18.50;99.90;226.50;231333.00;;;;5071936;28;20814;-73
2022/08/21 03:02:05;;;;;;;0.00;0.00;;;18.60;99.90;226.50;231333.00;;;;5072111;28;20714;-73
2022/08/21 03:04:33;;;;;;;0.00;0.00;;;18.60;99.90;226.50;231333.00;;;;5072038;28;20303;-73
2022/08/21 03:07:01;;;;;;;0.00;0.00;;;18.60;99.90;226.50;231333.00;;;;5071281;28;20201;-73
2022/08/21 03:09:29;;;;;;;0.00;0.00;;;18.60;99.90;226.50;231333.00;;;;5071790;28;20208;-74
2022/08/21 03:11:57;;;;;;;0.00;0.00;;;18.70;99.90;226.50;231333.00;;;;5072026;28;20190;-73
2022/08/21 03:14:26;;;;;;;0.00;0.00;;;18.60;99.90;226.50;231333.00;;;;5053030;28;20601;-73
2022/08/21 03:16:54;;;;;;;0.00;0.00;;;18.60;99.90;226.50;231333.00;;;;5071691;28;20201;-74
2022/08/21 03:19:22;;;;;;;0.00;0.00;;;18.60;99.90;226.50;231333.00;;;;5071266;28;20249;-72
2022/08/21 03:21:50;;;;;;;0.00;0.00;;;18.60;99.90;226.50;231333.00;;;;5071684;28;20205;-72
2022/08/21 03:24:18;;;;;;;0.00;0.00;;;18.60;99.90;226.50;231333.00;;;;5070978;28;20213;-72
2022/08/21 03:26:49;;;;;;;0.00;0.00;;;18.70;99.90;226.50;231333.00;;;;5071423;28;20198;-72
2022/08/21 03:29:17;;;;;;;0.00;0.00;;;18.80;99.90;226.50;231333.00;;;;5070868;28;20212;-72
2022/08/21 03:31:47;;;;;;;0.00;0.00;;;18.80;99.90;226.50;231333.00;;;;5072364;28;20209;-74
2022/08/21 03:34:16;;;;;;;0.00;0.00;;;18.80;99.90;226.50;231333.00;;;;5070938;28;20213;-73
2022/08/21 03:36:44;;;;;;;0.00;0.00;;;18.90;99.90;226.50;231333.00;;;;5060500;28;20669;-73
2022/08/21 03:39:12;;;;;;;0.00;0.00;;;18.80;99.90;226.50;231333.00;;;;5069478;28;20225;-74
2022/08/21 03:41:40;;;;;;;0.00;0.00;;;18.90;99.90;226.50;231333.00;;;;5067936;28;20207;-73
2022/08/21 03:44:08;;;;;;;0.00;0.00;;;18.90;99.90;226.50;231333.00;;;;5051765;28;20198;-74
2022/08/21 03:46:36;;;;;;;0.00;0.00;;;18.90;99.90;226.50;231333.00;;;;5059476;28;20209;-73
2022/08/21 03:49:05;;;;;;;0.00;0.00;;;18.90;99.90;226.50;231333.00;;;;5060224;28;20198;-72
2022/08/21 03:51:35;;;;;;;0.00;0.00;;;18.80;99.90;226.50;231333.00;;;;5066759;28;20213;-71
2022/08/21 03:54:03;;;;;;;0.00;0.00;;;18.80;99.90;226.50;231333.00;;;;5056422;28;20255;-72
2022/08/21 03:56:32;;;;;;;0.00;0.00;;;18.70;99.90;226.50;231333.00;;;;5069398;28;20574;-72
2022/08/21 03:59:00;;;;;;;0.00;0.00;;;18.60;99.90;226.50;231333.00;;;;5071243;28;20704;-71
2022/08/21 04:01:28;;;;;;;0.00;0.00;;;18.40;99.90;226.50;231333.00;;;;5057677;28;20202;-72
2022/08/21 04:03:56;;;;;;;0.00;0.00;;;18.40;99.90;226.50;231333.00;;;;5064644;28;20197;-73
2022/08/21 04:06:26;;;;;;;0.00;0.00;;;18.60;99.90;226.50;231333.00;;;;5070177;28;20196;-72
2022/08/21 04:08:54;;;;;;;0.00;0.00;;;18.60;99.90;226.50;231333.00;;;;5071298;28;20218;-73
2022/08/21 04:11:23;;;;;;;0.00;0.00;;;18.50;99.90;226.50;231333.00;;;;5060103;28;21005;-72
2022/08/21 04:13:51;;;;;;;0.00;0.00;;;18.50;99.90;226.50;231333.00;;;;5062512;28;20205;-71
2022/08/21 04:16:19;;;;;;;0.00;0.00;;;18.60;99.90;226.50;231333.00;;;;5066339;28;20214;-72
2022/08/21 04:18:47;;;;;;;0.00;0.00;;;18.60;99.90;226.50;231333.00;;;;5058169;28;20224;-72
2022/08/21 04:21:15;;;;;;;0.00;0.00;;;18.60;99.90;226.50;231333.00;;;;5070549;28;20201;-72
2022/08/21 04:23:44;;;;;;;0.00;0.00;;;18.60;99.90;226.50;231333.00;;;;5071271;28;20197;-72
2022/08/21 04:26:16;;;;;;;0.00;0.00;;;18.70;99.90;226.50;231333.00;;;;5060225;28;20228;-72
2022/08/21 04:28:44;;;;;;;0.00;0.00;;;18.70;99.90;226.50;231333.00;;;;5056421;28;20207;-72
2022/08/21 04:31:12;;;;;;;0.00;0.00;;;18.80;99.90;226.50;231333.00;;;;5071377;28;20194;-72
2022/08/21 04:33:40;;;;;;;0.00;0.00;;;18.90;99.90;226.50;231333.00;;;;5075324;28;20196;-72
2022/08/21 04:36:09;;;;;;;0.00;0.00;;;18.90;99.90;226.50;231333.00;;;;5066258;28;20218;-72
2022/08/21 04:38:38;;;;;;;0.00;0.00;;;18.90;99.90;226.50;231333.00;;;;5074789;28;20207;-72
2022/08/21 04:41:13;;;;;;;0.00;0.00;;;19.00;99.90;226.50;231333.00;;;;5073114;28;20193;-74
2022/08/21 04:43:42;;;;;;;0.00;0.00;;;18.90;99.90;226.50;231333.00;;;;5058685;28;20202;-73
2022/08/21 04:46:10;;;;;;;0.00;0.00;;;18.90;99.90;226.50;231333.00;;;;5070734;28;20623;-73
2022/08/21 04:48:41;;;;;;;0.00;0.00;;;18.90;99.90;226.50;231333.00;;;;5073827;28;20225;-73
2022/08/21 04:51:13;;;;;;;0.00;0.00;;;18.90;99.90;226.50;231333.00;;;;5068297;28;20584;-75
2022/08/21 04:53:49;;;;;;;0.00;0.00;;;18.90;99.90;226.50;231333.00;;;;5075288;28;20193;-75
2022/08/21 04:56:25;;;;;;;0.00;0.00;;;18.90;99.90;226.50;231333.00;;;;5053546;28;20768;-73
2022/08/21 04:58:57;;;;;;;0.00;0.00;;;18.90;99.90;226.50;231333.00;;;;5059438;28;20205;-72
2022/08/21 05:01:31;;;;;;;0.00;0.00;;;18.90;99.90;226.50;231333.00;;;;5073762;28;20275;-72
2022/08/21 05:04:04;;;;;;;0.00;0.00;;;18.90;99.90;226.50;231333.00;;;;5073720;28;20599;-72
2022/08/21 05:06:36;;;;;;;0.00;0.00;;;18.90;99.90;226.50;231333.00;;;;5055970;28;20190;-72
2022/08/21 05:09:06;;;;;;;0.00;0.00;;;18.90;99.90;226.50;231333.00;;;;5061884;28;20680;-75
2022/08/21 05:11:37;;;;;;;0.00;0.00;;;18.90;99.90;226.50;231333.00;;;;5072031;28;20189;-73
2022/08/21 05:14:05;;;;;;;0.00;0.00;;;19.00;99.90;226.50;231333.00;;;;5054592;28;20661;-73
2022/08/21 05:16:33;;;;;;;0.00;0.00;;;19.00;99.90;226.50;231333.00;;;;5073145;28;20186;-73
2022/08/21 05:19:06;;;;;;;0.00;0.00;;;19.00;99.90;226.50;231333.00;;;;5074085;28;20202;-73
2022/08/21 05:21:34;;;;;;;0.00;0.00;;;19.00;99.90;226.50;231333.00;;;;5069100;28;20217;-72
2022/08/21 05:24:03;;;;;;;0.00;0.00;;;19.00;99.90;226.50;231333.00;;;;5066838;28;20194;-73
2022/08/21 05:26:31;;;;;;;0.00;0.00;;;19.10;99.90;226.50;231333.00;;;;5069077;28;20691;-73
2022/08/21 05:29:01;;;;;;;0.00;0.00;;;19.10;99.90;226.50;231333.00;;;;5076159;28;20199;-72
2022/08/21 05:31:29;;;;;;;0.00;0.00;;;19.10;99.90;226.50;231333.00;;;;5056678;28;20194;-72
2022/08/21 05:33:57;;;;;;;0.00;0.00;;;19.10;99.90;226.50;231333.00;;;;5066098;28;20193;-73
2022/08/21 05:36:25;;;;;;;0.00;0.00;;;19.10;99.90;226.50;231333.00;;;;5064971;28;20197;-73
2022/08/21 05:38:53;;;;;;;0.00;0.00;;;19.10;99.90;226.50;231333.00;;;;5072115;28;20197;-74
2022/08/21 05:41:22;;;;;;;0.00;0.00;;;19.20;99.90;226.50;231333.00;;;;5072829;28;20225;-74
2022/08/21 05:43:50;;;;;;;0.00;0.00;;;19.10;99.90;226.50;231333.00;;;;5074011;28;20197;-73
2022/08/21 05:46:19;;;;;;;0.00;0.00;;;19.10;99.90;226.50;231333.00;;;;5071585;28;20209;-72
2022/08/21 05:48:47;;;;;;;0.00;0.00;;;19.10;99.90;226.50;231333.00;;;;5073651;28;20208;-73
2022/08/21 05:51:17;;;;;;;0.00;0.00;;;19.10;99.90;226.50;231333.00;;;;5062918;28;20209;-71
2022/08/21 05:53:46;;;;;;;0.00;0.00;;;19.10;99.90;226.50;231333.00;;;;5053923;28;20198;-72
2022/08/21 05:56:15;;;;;;;0.00;0.00;;;19.10;99.90;226.50;231333.00;;;;5064193;28;20222;-72
2022/08/21 05:58:43;;;;;;;0.00;0.00;;;19.20;99.90;226.50;231333.00;;;;5053802;28;20266;-72
2022/08/21 06:01:12;;;;;;;0.00;0.00;;;19.20;99.90;226.50;231333.00;;;;5068875;28;20228;-73
2022/08/21 06:03:42;;;;;;;0.00;0.00;;;19.20;99.90;226.50;231333.00;;;;5060790;28;20221;-73
2022/08/21 06:06:10;;;;;;;0.00;0.00;;;19.20;99.90;226.50;231333.00;;;;5061189;28;20736;-72
2022/08/21 06:08:39;;;;;;;0.00;0.00;;;19.20;99.90;226.50;231333.00;;;;5065159;28;20194;-72
2022/08/21 06:11:07;;;;;;;0.00;0.00;;;19.20;99.90;226.50;231333.00;;;;5072982;28;20201;-71
2022/08/21 06:13:37;;;;;;;0.00;0.00;;;19.20;99.90;226.50;231333.00;;;;5056324;28;20582;-71
2022/08/21 06:16:09;;;;;;;0.10;0.10;;;19.10;99.90;226.50;231333.00;;;;5055662;28;20222;-72
2022/08/21 06:18:39;;;;;;;0.00;0.00;;;19.10;99.90;226.50;231333.00;;;;5072558;28;20687;-72
2022/08/21 06:21:11;;;;;;;0.00;0.00;;;19.10;99.90;226.50;231333.00;;;;5073051;28;20221;-72
2022/08/21 06:23:39;;;;;;;0.00;0.00;;;19.10;99.90;226.50;231333.00;;;;5073839;28;20272;-74
2022/08/21 06:26:13;;;;;;;0.00;0.00;;;19.20;99.90;226.50;231333.00;;;;5059018;28;20557;-73
2022/08/21 06:28:42;;;;;;;0.00;0.00;;;19.20;99.90;226.50;231333.00;;;;5053317;28;20202;-71
2022/08/21 06:31:14;;;;;;;0.00;0.00;;;19.20;99.90;226.50;231333.00;;;;5065021;28;20209;-72
2022/08/21 06:33:42;;;;;;;0.00;0.00;;;19.20;99.90;226.50;231333.00;;;;5053036;28;20206;-72
2022/08/21 06:36:12;;;;;;;0.00;0.00;;;19.20;99.90;226.50;231333.00;;;;5067979;28;20210;-72
2022/08/21 06:38:41;;;;;;;0.00;0.00;;;19.30;99.90;226.50;231333.00;;;;5072794;28;20228;-72
2022/08/21 06:41:19;;;;;;;0.00;0.00;;;19.30;99.90;226.50;231333.00;;;;5066100;28;20628;-72
2022/08/21 06:43:54;;;;;;;0.00;0.00;;;19.30;99.90;226.50;231333.00;;;;5040570;28;20262;-72
2022/08/21 06:46:22;;;;;;;0.00;0.00;;;19.30;99.90;226.50;231333.00;;;;5070303;28;20201;-73
2022/08/21 06:48:50;;;;;;;0.00;0.00;;;19.30;99.90;226.50;231333.00;;;;5039849;28;20688;-72
2022/08/21 06:51:19;;;;;;;0.00;0.00;;;19.30;99.90;226.50;231333.00;;;;5068829;28;20209;-72
2022/08/21 06:53:47;;;;;;;0.00;0.00;;;19.30;99.90;226.50;231333.00;;;;5056048;28;20858;-72
2022/08/21 06:56:15;;;;;;;0.00;0.00;;;19.30;99.90;226.50;231333.00;;;;5065489;28;20225;-72
2022/08/21 06:58:44;;;;;;;0.00;0.00;;;19.30;99.90;226.50;231333.00;;;;5056544;28;20791;-72
2022/08/21 07:01:12;;;;;;;0.00;0.00;;;19.40;99.90;226.50;231333.00;;;;5067518;28;20603;-74
2022/08/21 07:03:43;;;;;;;0.00;0.00;;;19.30;99.90;226.50;231333.00;;;;5072440;28;20190;-72
2022/08/21 07:06:12;;;;;;;0.00;0.00;;;19.30;99.90;226.50;231333.00;;;;5055889;28;20220;-73
2022/08/21 07:08:42;;;;;;;0.00;0.00;;;19.20;99.90;226.50;231333.00;;;;5060151;28;20213;-72
2022/08/21 07:11:15;;;;;;;0.00;0.00;;;19.20;99.90;226.50;231333.00;;;;5058174;28;20699;-72
2022/08/21 07:13:43;;;;;;;0.00;0.00;;;19.20;99.90;226.50;231333.00;;;;5060945;28;20201;-74
2022/08/21 07:16:11;;;;;;;0.00;0.00;;;19.30;99.90;226.50;231333.00;;;;5067879;28;20226;-74
2022/08/21 07:18:39;;;;;;;0.00;0.00;;;19.40;99.90;226.50;231333.00;;;;5071926;28;20193;-74
2022/08/21 07:21:09;;;;;;;0.00;0.00;;;19.30;99.90;226.50;231333.00;;;;5057136;28;20226;-74
2022/08/21 07:23:42;;;;;;;0.00;0.00;;;19.40;99.90;226.50;231333.00;;;;5071611;28;20186;-74
2022/08/21 07:26:11;;;;;;;0.00;0.00;;;19.30;99.90;226.50;231333.00;;;;5071579;28;20221;-75
2022/08/21 07:28:39;;;;;;;0.00;0.00;;;19.30;99.90;226.50;231333.00;;;;5039523;28;20570;-75
2022/08/21 07:31:13;;;;;;;0.00;0.00;;;19.30;99.90;18.90;97439.00;;;;5059215;28;20198;-75
2022/08/21 07:33:43;;;;;;;0.00;0.00;;;19.30;99.90;19.00;97432.00;;;;5058596;28;20187;-75
2022/08/21 07:36:12;;;;;;;0.00;0.00;;;19.40;99.90;19.30;97441.00;;;;5065123;28;20218;-75
2022/08/21 07:38:40;;;;;;;0.00;0.00;;;19.60;99.90;19.50;97436.00;;;;5065772;28;20193;-75
2022/08/21 07:41:16;;;;;;;0.00;0.00;;;19.70;99.90;19.70;97445.00;;;;5064033;28;20210;-76
2022/08/21 07:43:46;;;;;;;0.00;0.00;;;19.90;99.90;19.90;97437.00;;;;5075688;28;20189;-75
2022/08/21 07:46:14;;;;;;;0.00;0.00;;;20.00;99.90;20.10;97439.00;;;;5076925;28;20217;-76
2022/08/21 07:48:43;;;;;;;0.00;0.00;;;20.20;99.90;20.20;97381.00;;;;5083298;28;20211;-75
2022/08/21 07:51:14;;;;;;;0.00;0.00;;;20.30;99.90;20.30;97434.00;;;;5077306;28;20202;-75
2022/08/21 07:53:42;;;;;;;0.00;0.00;;;20.40;99.90;20.40;97425.00;;;;5068943;28;20257;-75
2022/08/21 07:56:12;;;;;;;0.00;0.00;;;20.50;99.90;20.40;97426.00;;;;5070503;28;20637;-77
2022/08/21 07:58:40;;;;;;;0.00;0.00;;;20.60;99.90;20.40;97435.00;;;;5060995;28;20243;-76
2022/08/21 08:01:08;;;;;;;0.00;0.00;;;20.60;99.90;20.30;97430.00;;;;5072722;28;20221;-77
2022/08/21 08:03:36;;;;;;;0.00;0.00;;;20.50;99.90;20.30;97431.00;;;;5075628;28;20657;-77
2022/08/21 08:06:06;;;;;;;0.00;0.00;;;20.50;99.90;20.20;97427.00;;;;5059409;28;20214;-77
2022/08/21 08:08:34;;;;;;;0.00;0.00;;;20.50;99.90;20.40;97429.00;;;;5059133;28;20661;-76
2022/08/21 08:11:02;;;;;;;0.00;0.00;;;20.60;99.90;20.50;97430.00;;;;5074381;28;20202;-76
2022/08/21 08:13:31;;;;;;;0.00;0.00;;;20.70;99.90;20.60;97428.00;;;;5064208;28;20197;-76
2022/08/21 08:15:59;;;;;;;0.00;0.00;;;20.80;99.90;20.50;97429.00;;;;5071007;28;20217;-76
2022/08/21 08:18:27;;;;;;;0.00;0.00;;;20.80;99.90;20.60;97433.00;;;;5066460;28;20669;-76
2022/08/21 08:20:55;;;;;;;0.00;0.00;;;20.80;99.90;20.70;97423.00;;;;5064847;28;20217;-76
2022/08/21 08:23:23;;;;;;;0.00;0.00;;;20.90;99.90;20.90;97419.00;;;;5070912;28;20209;-76
2022/08/21 08:25:51;;;;;;;0.00;0.00;;;21.10;99.90;20.90;97420.00;;;;5070186;28;20225;-76
2022/08/21 08:28:19;;;;;;;0.00;0.00;;;21.10;99.90;21.20;97420.00;;;;5070514;28;20786;-76
2022/08/21 08:30:49;;;;;;;0.00;0.00;;;21.30;99.90;21.30;97426.00;;;;5066036;28;20198;-76
2022/08/21 08:33:18;;;;;;;0.00;0.00;;;21.40;99.90;21.50;97420.00;;;;5069749;28;20196;-76
2022/08/21 08:35:49;;;;;;;0.00;0.00;;;21.60;99.90;21.70;97426.00;;;;5070637;28;20220;-76
2022/08/21 08:38:20;;;;;;;0.00;0.00;;;21.80;99.90;21.80;97421.00;;;;5070478;28;20228;-76
2022/08/21 08:41:02;;;;;;;0.00;0.00;;;21.90;99.90;21.90;97421.00;;;;5058515;28;20579;-76
2022/08/21 08:43:33;;;;;;;0.00;0.00;;;22.00;99.90;22.00;97418.00;;;;5051931;28;20244;-76
2022/08/21 08:46:11;;;;;;;0.00;0.00;;;22.10;99.90;21.90;97407.00;;;;5065701;28;20221;-76
2022/08/21 08:48:51;;;;;;;0.00;0.00;;;22.10;99.90;22.00;97405.00;;;;5070569;28;20647;-76
2022/08/21 08:51:27;;;;;;;0.00;0.00;;;22.10;99.90;22.10;97414.00;;;;5058771;28;20210;-76
2022/08/21 08:54:03;;;;;;;0.00;0.00;;;22.20;99.90;22.10;97403.00;;;;5067345;28;20201;-77
2022/08/21 08:56:34;;;;;;;0.00;0.00;;;22.30;99.90;22.10;97413.00;;;;5070382;28;20549;-75
2022/08/21 08:59:10;;;;;;;0.00;0.00;;;22.30;99.90;22.10;97410.00;;;;5065777;28;20628;-75
2022/08/21 09:01:40;;;;;;;0.00;0.00;;;22.40;99.90;22.30;97410.00;;;;5062056;28;20225;-76
2022/08/21 09:04:12;;;;;;;0.00;0.00;;;22.50;99.90;22.40;97408.00;;;;5071046;28;20235;-75
2022/08/21 09:06:58;;;;;;;0.00;0.00;;;22.60;99.90;22.40;97412.00;;;;5070763;28;20205;-75
2022/08/21 09:09:45;;;;;;;0.00;0.00;;;22.70;99.90;22.40;97416.00;;;;5067969;28;20194;-75
2022/08/21 09:12:31;;;;;;;0.00;0.00;;;22.70;99.90;22.30;97418.00;;;;5066859;28;20626;-75
2022/08/21 09:15:13;;;;;;;0.00;0.00;;;22.60;99.90;22.20;97426.00;;;;5054659;28;20214;-75
2022/08/21 09:18:02;;;;;;;0.00;0.00;;;22.60;99.90;22.10;97411.00;;;;5072605;28;20204;-75
2022/08/21 09:20:41;;;;;;;0.00;0.00;;;22.50;99.90;22.10;97417.00;;;;5067053;28;20197;-75
2022/08/21 09:23:28;;;;;;;0.00;0.00;;;22.50;99.90;22.20;97415.00;;;;5072092;28;20601;-75
2022/08/21 09:26:04;;;;;;;0.00;0.00;;;22.50;99.90;22.40;97411.00;;;;5074123;28;20217;-75
2022/08/21 09:28:34;;;;;;;0.00;0.00;;;22.60;99.90;22.50;97409.00;;;;5074082;28;20200;-75
2022/08/21 09:31:07;;;;;;;0.00;0.00;;;22.70;99.90;22.60;97410.00;;;;5072265;28;20779;-76
2022/08/21 09:33:37;;;;;;;0.00;0.00;;;22.80;99.90;22.50;97413.00;;;;5068062;28;20571;-75
2022/08/21 09:36:06;;;;;;;0.00;0.00;;;22.80;99.90;22.60;97409.00;;;;5065964;28;20296;-76
2022/08/21 09:38:36;;;;;;;0.00;0.00;;;22.90;99.90;22.80;97408.00;;;;5072686;28;20190;-75
2022/08/21 09:41:09;;;;;;;0.00;0.00;;;23.00;99.90;23.00;97404.00;;;;5071879;28;20220;-75
2022/08/21 09:43:38;;;;;;;0.00;0.00;;;23.20;99.90;23.20;97413.00;;;;5063045;28;20221;-75
2022/08/21 09:46:13;;;;;;;0.00;0.00;;;23.30;99.90;23.30;97413.00;;;;5056150;28;20716;-75
2022/08/21 09:48:47;;;;;;;0.00;0.00;;;23.40;99.90;23.40;97409.00;;;;5064677;28;20189;-75
2022/08/21 09:51:20;;;;;;;0.00;0.00;;;23.50;99.90;23.30;97405.00;;;;5049912;28;20232;-75
2022/08/21 09:53:55;;;;;;;0.00;0.00;;;23.50;99.90;23.30;97406.00;;;;5053393;28;20209;-75
2022/08/21 09:59:26;;;;;;;0.00;0.00;;;23.50;99.90;23.20;97404.00;;;;5053865;28;20186;-75
2022/08/21 10:02:01;;;;;;;0.00;0.00;;;23.50;99.90;23.30;97399.00;;;;5053578;28;20209;-76
2022/08/21 10:04:34;;;;;;;0.00;0.00;;;23.50;99.90;23.20;97400.00;;;;5053359;28;20218;-75
2022/08/21 10:07:10;;;;;;;0.00;0.00;;;23.40;99.90;23.20;97400.00;;;;5053382;28;20750;-75
2022/08/21 10:09:38;;;;;;;0.00;0.00;;;23.40;99.90;22.90;97403.00;;;;5053502;28;20201;-75
2022/08/21 10:12:22;;;;;;;0.00;0.00;;;23.30;99.90;22.50;97397.00;;;;5052011;28;20198;-75
2022/08/21 10:15:00;;;;;;;0.00;0.00;;;23.20;99.90;22.70;97395.00;;;;5053075;28;20216;-75
2022/08/21 10:17:45;;;;;;;0.00;0.00;;;23.10;99.90;22.90;97399.00;;;;5053296;28;20285;-75
2022/08/21 10:20:23;;;;;;;0.00;0.00;;;23.20;99.90;23.00;97389.00;;;;5053469;28;20194;-75
2022/08/21 10:23:08;;;;;;;0.00;0.00;;;23.30;99.90;23.10;97397.00;;;;5052907;28;20218;-76
2022/08/21 10:25:45;;;;;;;0.00;0.00;;;23.40;99.90;22.80;97341.00;;;;5052831;28;20222;-76
2022/08/21 10:28:44;;;;;;;0.00;0.00;;;23.20;99.90;22.80;97400.00;;;;5053127;28;20194;-76
2022/08/21 10:31:21;;;;;;;0.00;0.00;;;23.20;99.90;23.10;97361.00;;;;5053008;28;20190;-75
2022/08/21 10:34:06;;;;;;;0.00;0.00;;;23.40;99.90;23.20;97403.00;;;;5053042;28;20201;-76
2022/08/21 10:36:47;;;;;;;0.00;0.00;;;23.50;99.90;23.40;97395.00;;;;5052939;28;20222;-76
2022/08/21 10:39:25;;;;;;;0.00;0.00;;;23.60;99.90;23.40;97283.00;;;;5052672;28;20669;-76
2022/08/21 10:42:28;;;;;;;0.00;0.00;;;23.70;99.90;23.60;97276.00;;;;5053142;28;20191;-76
2022/08/21 10:45:14;;;;;;;0.00;0.00;;;23.80;99.90;23.80;97284.00;;;;5052776;28;20207;-75
2022/08/21 10:47:49;;;;;;;0.00;0.00;;;24.00;99.90;24.00;97286.00;;;;5052979;28;20187;-75
2022/08/21 10:50:40;;;;;;;0.00;0.00;;;24.20;99.90;24.30;97286.00;;;;5052738;28;20195;-76
2022/08/21 10:53:48;;;;;;;0.00;0.00;;;24.40;99.90;24.60;97274.00;;;;5052640;28;20209;-75
2022/08/21 10:56:22;;;;;;;0.00;0.00;;;24.60;99.90;24.80;97279.00;;;;5052340;28;20222;-75
2022/08/21 10:59:18;;;;;;;0.00;0.00;;;24.90;99.90;24.90;97278.00;;;;5051990;28;20194;-75
2022/08/21 11:01:56;;;;;;;0.00;0.00;;;25.10;99.90;25.20;97279.00;;;;5052204;28;20614;-75
2022/08/21 11:04:32;;;;;;;0.00;0.00;;;25.30;99.90;25.20;97283.00;;;;5051888;28;20225;-75
2022/08/21 11:07:23;;;;;;;0.00;0.00;;;25.40;99.90;24.90;97280.00;;;;5052326;28;20738;-75